createdAt,value
2023-04-11T00:03:53.157Z,9.00
2023-04-11T00:07:58.665Z,8.90
2023-04-11T00:12:10.237Z,8.80
2023-04-11T00:16:13.052Z,8.80
2023-04-11T00:20:19.073Z,8.80
2023-04-11T00:24:21.879Z,8.70
2023-04-11T00:28:28.764Z,8.70
2023-04-11T00:32:39.034Z,8.70
2023-04-11T00:36:42.198Z,8.70
2023-04-11T00:40:46.388Z,8.60
2023-04-11T00:44:51.007Z,8.70
2023-04-11T00:48:54.453Z,8.70
2023-04-11T00:52:59.944Z,8.70
2023-04-11T00:57:04.832Z,8.80
2023-04-11T01:01:10.428Z,8.80
2023-04-11T01:05:15.042Z,8.80
2023-04-11T01:09:20.438Z,8.80
2023-04-11T01:13:23.405Z,8.90
2023-04-11T01:17:28.041Z,8.90
2023-04-11T01:21:31.910Z,8.90
2023-04-11T01:25:38.453Z,8.80
2023-04-11T01:29:41.263Z,8.70
2023-04-11T01:33:46.508Z,8.60
2023-04-11T01:37:49.360Z,8.60
2023-04-11T01:41:56.986Z,8.50
2023-04-11T01:46:00.757Z,8.40
2023-04-11T01:50:03.544Z,8.50
2023-04-11T01:54:08.021Z,8.50
2023-04-11T01:58:13.964Z,8.60
2023-04-11T02:02:17.113Z,8.60
2023-04-11T02:06:21.651Z,8.70
2023-04-11T02:10:24.482Z,8.70
2023-04-11T02:14:29.886Z,8.70
2023-04-11T02:18:33.872Z,8.70
2023-04-11T02:22:37.852Z,8.70
2023-04-11T02:26:41.490Z,8.70
2023-04-11T02:30:47.143Z,8.70
2023-04-11T02:34:54.032Z,8.50
2023-04-11T02:38:57.264Z,8.30
2023-04-11T02:43:03.139Z,8.10
2023-04-11T02:47:09.926Z,7.90
2023-04-11T02:51:13.348Z,7.80
2023-04-11T02:55:17.767Z,7.80
2023-04-11T02:59:21.464Z,7.80
2023-04-11T03:03:28.159Z,7.80
2023-04-11T03:07:31.825Z,7.60
2023-04-11T03:11:34.617Z,7.50
2023-04-11T03:15:40.679Z,7.60
2023-04-11T03:19:46.860Z,7.60
2023-04-11T03:23:52.476Z,7.60
2023-04-11T03:27:55.270Z,7.60
2023-04-11T03:31:58.068Z,7.60
2023-04-11T03:36:02.599Z,7.50
2023-04-11T03:40:08.574Z,7.50
2023-04-11T03:44:16.269Z,7.40
2023-04-11T03:48:21.560Z,7.40
2023-04-11T03:52:25.988Z,7.50
2023-04-11T03:56:29.271Z,7.50
2023-04-11T04:00:34.580Z,7.50
2023-04-11T04:04:40.773Z,7.50
2023-04-11T04:08:47.558Z,7.40
2023-04-11T04:12:50.905Z,7.40
2023-04-11T04:16:53.790Z,7.40
2023-04-11T04:20:56.656Z,7.40
2023-04-11T04:25:01.082Z,7.40
2023-04-11T04:29:05.695Z,7.50
2023-04-11T04:33:12.419Z,7.60
2023-04-11T04:37:23.843Z,7.60
2023-04-11T04:41:36.293Z,7.60
2023-04-11T04:45:42.037Z,7.50
2023-04-11T04:49:58.189Z,7.50
2023-04-11T04:54:04.969Z,7.60
2023-04-11T04:58:09.162Z,7.60
2023-04-11T05:02:14.003Z,7.60
2023-04-11T05:06:18.802Z,7.60
2023-04-11T05:10:22.785Z,7.60
2023-04-11T05:14:27.906Z,7.60
2023-04-11T05:18:31.109Z,7.70
2023-04-11T05:22:34.784Z,7.70
2023-04-11T05:26:38.056Z,7.80
2023-04-11T05:30:43.014Z,7.90
2023-04-11T05:34:57.303Z,8.00
2023-04-11T05:39:05.995Z,8.10
2023-04-11T05:43:14.348Z,8.30
2023-04-11T05:47:18.612Z,8.40
2023-04-11T05:51:26.121Z,8.50
2023-04-11T05:55:29.243Z,8.60
2023-04-11T05:59:33.814Z,8.70
2023-04-11T06:03:40.424Z,8.80
2023-04-11T06:07:48.853Z,8.90
2023-04-11T06:11:51.681Z,9.00
2023-04-11T06:15:54.582Z,9.00
2023-04-11T06:20:00.863Z,9.00
2023-04-11T06:24:06.824Z,9.10
2023-04-11T06:28:12.847Z,9.20
2023-04-11T06:32:16.377Z,9.40
2023-04-11T06:36:20.606Z,9.60
2023-04-11T06:40:23.481Z,9.80
2023-04-11T06:44:26.389Z,10.00
2023-04-11T06:48:29.250Z,10.10
2023-04-11T06:52:37.746Z,10.30
2023-04-11T06:56:40.936Z,10.30
2023-04-11T07:00:44.148Z,10.30
2023-04-11T07:04:50.517Z,10.20
2023-04-11T07:08:55.985Z,10.00
2023-04-11T07:12:58.748Z,9.80
2023-04-11T07:17:03.255Z,9.50
2023-04-11T07:21:10.909Z,9.40
2023-04-11T07:25:17.433Z,9.20
2023-04-11T07:29:20.435Z,9.20
2023-04-11T07:33:23.288Z,9.10
2023-04-11T07:37:29.864Z,9.00
2023-04-11T07:41:38.304Z,8.90
2023-04-11T07:45:41.627Z,8.70
2023-04-11T07:49:45.651Z,8.60
2023-04-11T07:53:48.467Z,8.50
2023-04-11T07:57:52.807Z,8.50
2023-04-11T08:02:04.406Z,8.60
2023-04-11T08:06:08.827Z,8.60
2023-04-11T08:10:11.793Z,8.60
2023-04-11T08:14:18.284Z,8.50
2023-04-11T08:18:24.448Z,8.40
2023-04-11T08:22:29.739Z,8.40
2023-04-11T08:26:35.475Z,8.40
2023-04-11T08:30:41.749Z,8.50
2023-04-11T08:34:44.806Z,8.50
2023-04-11T08:38:47.737Z,8.60
2023-04-11T08:42:52.744Z,8.70
2023-04-11T08:46:58.902Z,8.90
2023-04-11T08:51:01.863Z,9.10
2023-04-11T08:55:05.268Z,9.30
2023-04-11T08:59:08.047Z,9.50
2023-04-11T09:03:13.568Z,9.60
2023-04-11T09:07:17.423Z,9.80
2023-04-11T09:11:20.804Z,10.10
2023-04-11T09:15:28.046Z,10.30
2023-04-11T09:19:33.741Z,10.40
2023-04-11T09:23:39.787Z,10.90
2023-04-11T09:27:45.199Z,10.90
2023-04-11T09:31:48.002Z,10.70
2023-04-11T09:35:53.828Z,10.60
2023-04-11T09:40:00.282Z,10.60
2023-04-11T09:44:03.883Z,10.60
2023-04-11T09:48:06.953Z,10.60
2023-04-11T09:52:21.778Z,10.60
2023-04-11T09:56:27.546Z,10.80
2023-04-11T10:00:32.263Z,11.60
2023-04-11T10:04:35.638Z,12.10
2023-04-11T10:08:45.757Z,12.00
2023-04-11T10:12:50.848Z,11.80
2023-04-11T10:17:27.326Z,11.90
2023-04-11T10:21:43.838Z,12.20
2023-04-11T10:26:04.440Z,12.50
2023-04-11T10:30:12.491Z,12.70
2023-04-11T10:34:19.468Z,12.90
2023-04-11T10:38:49.746Z,13.30
2023-04-11T10:42:54.152Z,13.90
2023-04-11T10:46:57.044Z,13.60
2023-04-11T10:50:59.982Z,13.10
2023-04-11T10:55:17.672Z,12.80
2023-04-11T10:59:53.755Z,13.10
2023-04-11T11:04:07.241Z,13.60
2023-04-11T11:08:10.859Z,13.30
2023-04-11T11:12:15.353Z,13.30
2023-04-11T11:16:19.542Z,13.00
2023-04-11T11:20:24.262Z,11.70
2023-04-11T11:24:27.376Z,10.60
2023-04-11T11:28:30.447Z,10.70
2023-04-11T11:32:33.244Z,11.50
2023-04-11T11:36:42.176Z,11.20
2023-04-11T11:40:46.792Z,11.20
2023-04-11T11:44:49.927Z,11.80
2023-04-11T11:49:03.644Z,12.10
2023-04-11T11:53:15.709Z,12.40
2023-04-11T11:57:23.867Z,13.10
2023-04-11T12:01:29.387Z,12.90
2023-04-11T12:05:33.587Z,11.90
2023-04-11T12:09:41.445Z,9.90
2023-04-11T12:13:46.136Z,9.30
2023-04-11T12:17:53.518Z,9.60
2023-04-11T12:21:56.453Z,10.10
2023-04-11T12:26:01.052Z,10.40
2023-04-11T12:30:04.384Z,10.50
2023-04-11T12:34:12.657Z,10.30
2023-04-11T12:38:17.745Z,10.30
2023-04-11T12:42:27.801Z,10.60
2023-04-11T12:46:30.678Z,10.80
2023-04-11T12:50:41.942Z,11.10
2023-04-11T12:54:47.468Z,11.30
2023-04-11T12:58:53.617Z,11.60
2023-04-11T13:02:57.996Z,11.90
2023-04-11T13:07:04.784Z,12.40
2023-04-11T13:11:08.196Z,13.00
2023-04-11T13:15:15.267Z,13.40
2023-04-11T13:19:19.662Z,13.50
2023-04-11T13:23:22.436Z,13.10
2023-04-11T13:27:26.457Z,12.70
2023-04-11T13:31:35.058Z,11.70
2023-04-11T13:35:43.205Z,11.30
2023-04-11T13:39:46.076Z,11.30
2023-04-11T13:43:49.242Z,11.40
2023-04-11T13:47:55.287Z,11.50
2023-04-11T13:52:02.305Z,11.50
2023-04-11T13:56:08.653Z,11.20
2023-04-11T14:00:15.890Z,10.90
2023-04-11T14:04:20.950Z,10.10
2023-04-11T14:08:24.026Z,10.10
2023-04-11T14:12:29.613Z,10.50
2023-04-11T14:16:32.459Z,11.00
2023-04-11T14:20:39.586Z,11.50
2023-04-11T14:24:50.037Z,11.80
2023-04-11T14:28:52.822Z,12.20
2023-04-11T14:32:59.209Z,12.50
2023-04-11T14:37:03.892Z,12.80
2023-04-11T14:41:08.827Z,13.00
2023-04-11T14:45:13.242Z,13.40
2023-04-11T14:49:19.846Z,13.70
2023-04-11T14:53:28.328Z,13.90
2023-04-11T14:57:45.697Z,13.40
2023-04-11T15:01:51.686Z,13.10
2023-04-11T15:05:59.350Z,12.60
2023-04-11T15:10:08.233Z,12.60
2023-04-11T15:14:11.111Z,12.60
2023-04-11T15:18:24.910Z,12.40
2023-04-11T15:22:29.638Z,12.50
2023-04-11T15:26:35.873Z,12.80
2023-04-11T15:30:47.275Z,12.90
2023-04-11T15:34:55.065Z,13.00
2023-04-11T15:38:58.190Z,13.10
2023-04-11T15:43:02.441Z,13.30
2023-04-11T15:47:07.428Z,13.50
2023-04-11T15:51:14.145Z,13.60
2023-04-11T15:55:19.480Z,13.80
2023-04-11T15:59:25.031Z,13.90
2023-04-11T16:03:31.685Z,13.80
2023-04-11T16:07:34.752Z,13.90
2023-04-11T16:11:38.700Z,14.10
2023-04-11T16:15:44.669Z,14.20
2023-04-11T16:19:47.655Z,13.90
2023-04-11T16:23:53.568Z,14.20
2023-04-11T16:27:56.906Z,14.30
2023-04-11T16:32:05.342Z,14.10
2023-04-11T16:36:09.428Z,14.10
2023-04-11T16:40:12.360Z,14.40
2023-04-11T16:44:18.170Z,14.90
2023-04-11T16:48:26.110Z,15.50
2023-04-11T16:52:29.504Z,15.90
2023-04-11T16:56:34.254Z,16.10
2023-04-11T17:00:40.827Z,15.40
2023-04-11T17:04:45.002Z,14.40
2023-04-11T17:08:47.898Z,13.70
2023-04-11T17:12:51.091Z,13.20
2023-04-11T17:16:55.653Z,12.80
2023-04-11T17:21:00.799Z,12.50
2023-04-11T17:25:07.626Z,12.20
2023-04-11T17:29:11.024Z,12.00
2023-04-11T17:33:14.469Z,11.70
2023-04-11T17:37:22.228Z,11.50
2023-04-11T17:41:25.015Z,11.30
2023-04-11T17:45:28.148Z,11.10
2023-04-11T17:49:33.619Z,11.00
2023-04-11T17:53:38.173Z,10.80
2023-04-11T17:57:41.827Z,10.60
2023-04-11T18:01:47.288Z,10.50
2023-04-11T18:05:51.974Z,10.30
2023-04-11T18:09:59.000Z,10.10
2023-04-11T18:14:02.874Z,9.90
2023-04-11T18:18:09.615Z,9.70
2023-04-11T18:22:12.687Z,9.30
2023-04-11T18:26:19.882Z,9.00
2023-04-11T18:30:24.837Z,8.70
2023-04-11T18:34:27.750Z,8.40
2023-04-11T18:38:32.701Z,8.10
2023-04-11T18:42:39.139Z,7.90
2023-04-11T18:46:47.074Z,7.80
2023-04-11T18:51:11.064Z,7.50
2023-04-11T18:55:16.856Z,7.30
2023-04-11T18:59:26.773Z,7.10
2023-04-11T19:03:34.541Z,6.90
2023-04-11T19:07:38.002Z,6.70
2023-04-11T19:11:42.761Z,6.50
2023-04-11T19:15:47.369Z,6.30
2023-04-11T19:19:52.470Z,6.10
2023-04-11T19:23:58.524Z,5.90
2023-04-11T19:28:03.924Z,5.70
2023-04-11T19:32:09.596Z,5.60
2023-04-11T19:36:17.714Z,5.50
2023-04-11T19:40:23.397Z,5.30
2023-04-11T19:44:26.625Z,5.20
2023-04-11T19:48:31.450Z,5.00
2023-04-11T19:52:34.476Z,4.90
2023-04-11T19:56:39.208Z,4.80
2023-04-11T20:00:42.098Z,4.70
2023-04-11T20:04:58.219Z,4.60
2023-04-11T20:09:01.184Z,4.60
2023-04-11T20:13:04.318Z,4.50
2023-04-11T20:17:08.576Z,4.50
2023-04-11T20:21:15.426Z,4.40
2023-04-11T20:25:20.088Z,4.30
2023-04-11T20:29:24.691Z,4.20
2023-04-11T20:33:28.879Z,4.20
2023-04-11T20:37:35.108Z,4.10
2023-04-11T20:41:40.689Z,4.10
2023-04-11T20:45:45.899Z,4.00
2023-04-11T20:49:49.657Z,3.90
2023-04-11T20:53:53.886Z,3.80
2023-04-11T20:57:59.160Z,3.90
2023-04-11T21:02:02.248Z,4.40
2023-04-11T21:06:07.397Z,5.00
2023-04-11T21:10:14.498Z,5.30
2023-04-11T21:14:18.565Z,5.60
2023-04-11T21:18:21.350Z,5.90
2023-04-11T21:22:30.370Z,6.00
2023-04-11T21:26:34.628Z,6.10
2023-04-11T21:30:39.493Z,6.10
2023-04-11T21:34:43.959Z,5.70
2023-04-11T21:38:46.734Z,5.40
2023-04-11T21:42:50.964Z,5.10
2023-04-11T21:46:53.814Z,4.80
2023-04-11T21:50:56.603Z,4.60
2023-04-11T21:55:01.120Z,4.40
2023-04-11T21:59:06.483Z,4.20
2023-04-11T22:03:12.015Z,3.90
2023-04-11T22:07:15.918Z,3.70
2023-04-11T22:11:19.609Z,3.60
2023-04-11T22:15:24.156Z,3.50
2023-04-11T22:19:31.293Z,3.40
2023-04-11T22:23:35.905Z,3.30
2023-04-11T22:27:39.014Z,3.10
2023-04-11T22:31:44.613Z,3.00
2023-04-11T22:35:48.189Z,2.80
2023-04-11T22:39:51.730Z,2.70
2023-04-11T22:44:00.392Z,2.60
2023-04-11T22:48:07.240Z,2.60
2023-04-11T22:52:22.689Z,2.50
2023-04-11T22:56:28.312Z,2.50
2023-04-11T23:00:40.838Z,2.50
2023-04-11T23:04:45.134Z,2.50
2023-04-11T23:08:48.016Z,2.50
2023-04-11T23:12:53.687Z,2.50
2023-04-11T23:17:01.425Z,2.50
2023-04-11T23:21:06.080Z,2.50
2023-04-11T23:25:10.869Z,2.50
2023-04-11T23:29:16.278Z,2.50
2023-04-11T23:33:19.573Z,2.50
2023-04-11T23:37:24.352Z,2.50
2023-04-11T23:41:29.254Z,2.50
2023-04-11T23:45:36.340Z,2.60
2023-04-11T23:49:39.206Z,2.60
2023-04-11T23:53:50.937Z,2.60
2023-04-11T23:57:55.248Z,2.60
